TAF Text Data
IDs:
Format:
Raw Decoded Include METAR

Data at: 2118 UTC 01 Dec 2021

KCYS 011720Z 0118/0218 28025G38KT P6SM BKN200
  FM012200 28020G30KT P6SM BKN200
  FM020200 28015G25KT P6SM SCT200
  FM020800 28012KT P6SM SCT200